sensor_id;sensor_type;location;lat;lon;timestamp;temperature;humidity
11559;DHT22;5835;42.930;25.178;2023-09-07T00:01:35;18.30;99.90
11559;DHT22;5835;42.930;25.178;2023-09-07T00:04:02;18.30;99.90
11559;DHT22;5835;42.930;25.178;2023-09-07T00:06:30;18.40;99.90
11559;DHT22;5835;42.930;25.178;2023-09-07T00:08:57;18.50;99.90
11559;DHT22;5835;42.930;25.178;2023-09-07T00:11:23;18.30;99.90
11559;DHT22;5835;42.930;25.178;2023-09-07T00:13:51;18.20;1.00
11559;DHT22;5835;42.930;25.178;2023-09-07T00:16:19;18.20;99.90
11559;DHT22;5835;42.930;25.178;2023-09-07T00:18:45;18.20;99.90
11559;DHT22;5835;42.930;25.178;2023-09-07T00:21:12;18.20;55.10
11559;DHT22;5835;42.930;25.178;2023-09-07T00:23:40;18.20;1.00
11559;DHT22;5835;42.930;25.178;2023-09-07T00:26:07;18.10;99.90
11559;DHT22;5835;42.930;25.178;2023-09-07T00:28:34;18.00;99.90
11559;DHT22;5835;42.930;25.178;2023-09-07T00:31:01;18.00;99.90
11559;DHT22;5835;42.930;25.178;2023-09-07T00:33:29;17.90;99.90
11559;DHT22;5835;42.930;25.178;2023-09-07T00:35:56;18.00;1.00
11559;DHT22;5835;42.930;25.178;2023-09-07T00:38:23;18.00;99.90
11559;DHT22;5835;42.930;25.178;2023-09-07T00:40:50;18.10;1.00
11559;DHT22;5835;42.930;25.178;2023-09-07T00:43:17;18.00;99.90
11559;DHT22;5835;42.930;25.178;2023-09-07T00:45:44;18.00;99.90
11559;DHT22;5835;42.930;25.178;2023-09-07T00:48:12;18.00;99.90
11559;DHT22;5835;42.930;25.178;2023-09-07T00:50:40;18.00;34.00
11559;DHT22;5835;42.930;25.178;2023-09-07T00:53:08;18.00;99.90
11559;DHT22;5835;42.930;25.178;2023-09-07T00:55:36;18.10;99.90
11559;DHT22;5835;42.930;25.178;2023-09-07T00:58:04;18.20;1.00
11559;DHT22;5835;42.930;25.178;2023-09-07T01:00:31;18.00;99.90
11559;DHT22;5835;42.930;25.178;2023-09-07T01:02:58;17.80;1.00
11559;DHT22;5835;42.930;25.178;2023-09-07T01:05:32;17.80;1.00
11559;DHT22;5835;42.930;25.178;2023-09-07T01:08:09;17.70;99.90
11559;DHT22;5835;42.930;25.178;2023-09-07T01:10:37;17.70;1.00
11559;DHT22;5835;42.930;25.178;2023-09-07T01:13:04;17.70;1.00
11559;DHT22;5835;42.930;25.178;2023-09-07T01:15:32;17.60;1.00
11559;DHT22;5835;42.930;25.178;2023-09-07T01:17:59;17.60;99.90
11559;DHT22;5835;42.930;25.178;2023-09-07T01:20:26;17.60;99.90
11559;DHT22;5835;42.930;25.178;2023-09-07T01:22:54;17.60;99.90
11559;DHT22;5835;42.930;25.178;2023-09-07T01:25:22;17.50;1.00
11559;DHT22;5835;42.930;25.178;2023-09-07T01:27:50;17.50;1.00
11559;DHT22;5835;42.930;25.178;2023-09-07T01:30:17;17.50;1.00
11559;DHT22;5835;42.930;25.178;2023-09-07T01:32:44;17.50;1.00
11559;DHT22;5835;42.930;25.178;2023-09-07T01:35:13;17.50;71.40
11559;DHT22;5835;42.930;25.178;2023-09-07T01:37:42;17.50;99.90
11559;DHT22;5835;42.930;25.178;2023-09-07T01:40:10;17.40;99.90
11559;DHT22;5835;42.930;25.178;2023-09-07T01:42:37;17.40;1.00
11559;DHT22;5835;42.930;25.178;2023-09-07T01:45:05;17.40;99.90
11559;DHT22;5835;42.930;25.178;2023-09-07T01:47:32;17.30;99.90
11559;DHT22;5835;42.930;25.178;2023-09-07T01:49:59;17.40;99.90
11559;DHT22;5835;42.930;25.178;2023-09-07T01:52:26;17.30;99.20
11559;DHT22;5835;42.930;25.178;2023-09-07T01:54:53;17.30;99.90
11559;DHT22;5835;42.930;25.178;2023-09-07T01:57:22;17.30;6.90
11559;DHT22;5835;42.930;25.178;2023-09-07T01:59:50;17.30;99.90
11559;DHT22;5835;42.930;25.178;2023-09-07T02:02:16;17.30;1.00
11559;DHT22;5835;42.930;25.178;2023-09-07T02:04:43;17.20;1.00
11559;DHT22;5835;42.930;25.178;2023-09-07T02:07:12;17.20;99.90
11559;DHT22;5835;42.930;25.178;2023-09-07T02:09:39;17.10;99.90
11559;DHT22;5835;42.930;25.178;2023-09-07T02:12:07;17.00;99.90
11559;DHT22;5835;42.930;25.178;2023-09-07T02:14:35;17.10;99.90
11559;DHT22;5835;42.930;25.178;2023-09-07T02:17:02;17.00;99.90
11559;DHT22;5835;42.930;25.178;2023-09-07T02:19:29;17.00;99.90
11559;DHT22;5835;42.930;25.178;2023-09-07T02:21:56;17.00;99.90
11559;DHT22;5835;42.930;25.178;2023-09-07T02:24:24;17.00;1.00
11559;DHT22;5835;42.930;25.178;2023-09-07T02:26:51;17.00;99.90
11559;DHT22;5835;42.930;25.178;2023-09-07T02:29:18;17.00;1.00
11559;DHT22;5835;42.930;25.178;2023-09-07T02:31:46;17.00;1.00
11559;DHT22;5835;42.930;25.178;2023-09-07T02:34:13;17.10;1.00
11559;DHT22;5835;42.930;25.178;2023-09-07T02:36:40;17.30;1.00
11559;DHT22;5835;42.930;25.178;2023-09-07T02:39:06;17.30;1.00
11559;DHT22;5835;42.930;25.178;2023-09-07T02:41:34;17.20;1.00
11559;DHT22;5835;42.930;25.178;2023-09-07T02:44:01;17.10;1.00
11559;DHT22;5835;42.930;25.178;2023-09-07T02:46:29;17.00;1.00
11559;DHT22;5835;42.930;25.178;2023-09-07T02:48:57;16.90;1.00
11559;DHT22;5835;42.930;25.178;2023-09-07T02:51:24;16.90;1.00
11559;DHT22;5835;42.930;25.178;2023-09-07T02:53:51;16.90;1.00
11559;DHT22;5835;42.930;25.178;2023-09-07T02:56:19;16.90;1.00
11559;DHT22;5835;42.930;25.178;2023-09-07T02:58:46;16.90;1.00
11559;DHT22;5835;42.930;25.178;2023-09-07T03:01:13;17.00;1.00
11559;DHT22;5835;42.930;25.178;2023-09-07T03:03:40;16.90;1.00
11559;DHT22;5835;42.930;25.178;2023-09-07T03:06:13;16.80;1.00
11559;DHT22;5835;42.930;25.178;2023-09-07T03:08:40;16.70;1.00
11559;DHT22;5835;42.930;25.178;2023-09-07T03:11:07;16.60;1.00
11559;DHT22;5835;42.930;25.178;2023-09-07T03:13:35;16.60;1.00
11559;DHT22;5835;42.930;25.178;2023-09-07T03:16:03;16.60;1.00
11559;DHT22;5835;42.930;25.178;2023-09-07T03:18:30;16.60;1.00
11559;DHT22;5835;42.930;25.178;2023-09-07T03:21:01;16.60;1.00
11559;DHT22;5835;42.930;25.178;2023-09-07T03:23:30;16.50;1.00
11559;DHT22;5835;42.930;25.178;2023-09-07T03:25:57;16.60;1.00
11559;DHT22;5835;42.930;25.178;2023-09-07T03:28:27;16.50;1.00
11559;DHT22;5835;42.930;25.178;2023-09-07T03:30:54;16.50;1.00
11559;DHT22;5835;42.930;25.178;2023-09-07T03:33:21;16.40;1.00
11559;DHT22;5835;42.930;25.178;2023-09-07T03:35:48;16.30;29.30
11559;DHT22;5835;42.930;25.178;2023-09-07T03:38:17;16.40;57.10
11559;DHT22;5835;42.930;25.178;2023-09-07T03:40:45;16.40;1.00
11559;DHT22;5835;42.930;25.178;2023-09-07T03:43:13;16.30;1.00
11559;DHT22;5835;42.930;25.178;2023-09-07T03:45:40;16.20;1.00
11559;DHT22;5835;42.930;25.178;2023-09-07T03:48:07;16.10;9.50
11559;DHT22;5835;42.930;25.178;2023-09-07T03:50:35;16.20;55.90
11559;DHT22;5835;42.930;25.178;2023-09-07T03:53:03;16.20;50.00
11559;DHT22;5835;42.930;25.178;2023-09-07T03:55:30;16.20;77.50
11559;DHT22;5835;42.930;25.178;2023-09-07T03:57:59;16.30;35.90
11559;DHT22;5835;42.930;25.178;2023-09-07T04:00:26;16.20;24.20
11559;DHT22;5835;42.930;25.178;2023-09-07T04:02:53;16.20;21.00
11559;DHT22;5835;42.930;25.178;2023-09-07T04:05:22;16.10;1.00
11559;DHT22;5835;42.930;25.178;2023-09-07T04:07:51;16.20;86.60
11559;DHT22;5835;42.930;25.178;2023-09-07T04:10:18;16.20;55.50
11559;DHT22;5835;42.930;25.178;2023-09-07T04:12:46;16.00;99.90
11559;DHT22;5835;42.930;25.178;2023-09-07T04:15:14;16.10;99.90
11559;DHT22;5835;42.930;25.178;2023-09-07T04:17:41;16.10;99.90
11559;DHT22;5835;42.930;25.178;2023-09-07T04:20:09;16.20;92.70
11559;DHT22;5835;42.930;25.178;2023-09-07T04:22:38;16.20;47.80
11559;DHT22;5835;42.930;25.178;2023-09-07T04:25:05;16.20;16.40
11559;DHT22;5835;42.930;25.178;2023-09-07T04:27:32;16.20;22.70
11559;DHT22;5835;42.930;25.178;2023-09-07T04:30:00;16.30;88.40
11559;DHT22;5835;42.930;25.178;2023-09-07T04:32:28;16.30;11.40
11559;DHT22;5835;42.930;25.178;2023-09-07T04:34:55;16.20;1.00
11559;DHT22;5835;42.930;25.178;2023-09-07T04:37:23;16.20;28.30
11559;DHT22;5835;42.930;25.178;2023-09-07T04:39:51;16.20;41.20
11559;DHT22;5835;42.930;25.178;2023-09-07T04:42:19;16.20;99.90
11559;DHT22;5835;42.930;25.178;2023-09-07T04:44:46;16.20;88.50
11559;DHT22;5835;42.930;25.178;2023-09-07T04:47:13;16.20;84.80
11559;DHT22;5835;42.930;25.178;2023-09-07T04:49:42;16.40;99.90
11559;DHT22;5835;42.930;25.178;2023-09-07T04:52:09;16.50;99.90
11559;DHT22;5835;42.930;25.178;2023-09-07T04:54:36;16.50;76.80
11559;DHT22;5835;42.930;25.178;2023-09-07T04:57:04;16.60;83.90
11559;DHT22;5835;42.930;25.178;2023-09-07T04:59:31;16.60;1.00
11559;DHT22;5835;42.930;25.178;2023-09-07T05:01:59;16.60;1.00
11559;DHT22;5835;42.930;25.178;2023-09-07T05:04:28;16.60;1.00
11559;DHT22;5835;42.930;25.178;2023-09-07T05:06:57;16.60;1.00
11559;DHT22;5835;42.930;25.178;2023-09-07T05:09:24;16.60;1.00
11559;DHT22;5835;42.930;25.178;2023-09-07T05:11:52;16.70;1.00
11559;DHT22;5835;42.930;25.178;2023-09-07T05:14:19;16.70;14.60
11559;DHT22;5835;42.930;25.178;2023-09-07T05:16:47;16.90;1.00
11559;DHT22;5835;42.930;25.178;2023-09-07T05:19:14;17.00;1.00
11559;DHT22;5835;42.930;25.178;2023-09-07T05:21:42;17.00;1.00
11559;DHT22;5835;42.930;25.178;2023-09-07T05:24:12;17.10;1.00
11559;DHT22;5835;42.930;25.178;2023-09-07T05:26:39;17.10;1.00
11559;DHT22;5835;42.930;25.178;2023-09-07T05:29:06;17.20;1.00
11559;DHT22;5835;42.930;25.178;2023-09-07T05:31:33;17.30;1.00
11559;DHT22;5835;42.930;25.178;2023-09-07T05:34:01;17.40;99.90
11559;DHT22;5835;42.930;25.178;2023-09-07T05:36:28;17.40;1.00
11559;DHT22;5835;42.930;25.178;2023-09-07T05:38:55;17.50;1.00
11559;DHT22;5835;42.930;25.178;2023-09-07T05:41:23;17.60;99.90
11559;DHT22;5835;42.930;25.178;2023-09-07T05:43:52;17.60;99.90
11559;DHT22;5835;42.930;25.178;2023-09-07T05:46:19;17.70;99.90
11559;DHT22;5835;42.930;25.178;2023-09-07T05:48:46;17.90;99.90
11559;DHT22;5835;42.930;25.178;2023-09-07T05:51:13;18.10;86.30
11559;DHT22;5835;42.930;25.178;2023-09-07T05:53:40;18.10;99.90
11559;DHT22;5835;42.930;25.178;2023-09-07T05:56:07;18.20;1.00
11559;DHT22;5835;42.930;25.178;2023-09-07T05:58:35;18.30;99.90
11559;DHT22;5835;42.930;25.178;2023-09-07T06:01:02;18.40;99.90
11559;DHT22;5835;42.930;25.178;2023-09-07T06:03:29;18.50;99.90
11559;DHT22;5835;42.930;25.178;2023-09-07T06:05:58;18.50;1.00
11559;DHT22;5835;42.930;25.178;2023-09-07T06:08:25;18.60;99.90
11559;DHT22;5835;42.930;25.178;2023-09-07T06:10:53;18.70;26.90
11559;DHT22;5835;42.930;25.178;2023-09-07T06:13:21;18.90;99.90
11559;DHT22;5835;42.930;25.178;2023-09-07T06:15:49;18.90;1.00
11559;DHT22;5835;42.930;25.178;2023-09-07T06:18:16;19.00;1.00
11559;DHT22;5835;42.930;25.178;2023-09-07T06:20:43;18.90;99.90
11559;DHT22;5835;42.930;25.178;2023-09-07T06:23:10;19.00;99.90
11559;DHT22;5835;42.930;25.178;2023-09-07T06:25:37;19.10;99.90
11559;DHT22;5835;42.930;25.178;2023-09-07T06:28:05;19.20;4.70
11559;DHT22;5835;42.930;25.178;2023-09-07T06:30:32;19.30;1.00
11559;DHT22;5835;42.930;25.178;2023-09-07T06:33:01;19.40;99.90
11559;DHT22;5835;42.930;25.178;2023-09-07T06:35:28;19.60;99.90
11559;DHT22;5835;42.930;25.178;2023-09-07T06:37:55;19.50;1.00
11559;DHT22;5835;42.930;25.178;2023-09-07T06:40:22;19.60;99.90
11559;DHT22;5835;42.930;25.178;2023-09-07T06:42:49;19.70;99.90
11559;DHT22;5835;42.930;25.178;2023-09-07T06:45:16;19.70;1.00
11559;DHT22;5835;42.930;25.178;2023-09-07T06:47:43;19.80;1.00
11559;DHT22;5835;42.930;25.178;2023-09-07T06:50:11;20.20;1.00
11559;DHT22;5835;42.930;25.178;2023-09-07T06:52:38;20.50;1.00
11559;DHT22;5835;42.930;25.178;2023-09-07T06:55:05;20.60;99.90
11559;DHT22;5835;42.930;25.178;2023-09-07T06:57:32;20.70;1.00
11559;DHT22;5835;42.930;25.178;2023-09-07T07:00:00;20.60;70.90
11559;DHT22;5835;42.930;25.178;2023-09-07T07:02:27;20.70;1.00
11559;DHT22;5835;42.930;25.178;2023-09-07T07:04:54;20.70;1.00
11559;DHT22;5835;42.930;25.178;2023-09-07T07:07:21;20.70;99.90
11559;DHT22;5835;42.930;25.178;2023-09-07T07:09:48;20.80;99.90
11559;DHT22;5835;42.930;25.178;2023-09-07T07:12:18;20.80;99.90
11559;DHT22;5835;42.930;25.178;2023-09-07T07:14:46;20.90;99.90
11559;DHT22;5835;42.930;25.178;2023-09-07T07:17:13;21.10;99.90
11559;DHT22;5835;42.930;25.178;2023-09-07T07:19:40;21.00;62.20
11559;DHT22;5835;42.930;25.178;2023-09-07T07:22:09;21.20;43.40
11559;DHT22;5835;42.930;25.178;2023-09-07T07:24:37;21.40;1.00
11559;DHT22;5835;42.930;25.178;2023-09-07T07:27:04;21.60;1.00
11559;DHT22;5835;42.930;25.178;2023-09-07T07:29:31;21.50;1.00
11559;DHT22;5835;42.930;25.178;2023-09-07T07:31:58;21.70;1.00
11559;DHT22;5835;42.930;25.178;2023-09-07T07:34:25;21.70;1.00
11559;DHT22;5835;42.930;25.178;2023-09-07T07:36:52;21.90;1.00
11559;DHT22;5835;42.930;25.178;2023-09-07T07:39:20;22.00;1.00
11559;DHT22;5835;42.930;25.178;2023-09-07T07:41:48;22.30;99.90
11559;DHT22;5835;42.930;25.178;2023-09-07T07:44:14;22.30;99.90
11559;DHT22;5835;42.930;25.178;2023-09-07T07:46:41;22.30;99.90
11559;DHT22;5835;42.930;25.178;2023-09-07T07:49:08;22.40;99.90
11559;DHT22;5835;42.930;25.178;2023-09-07T07:51:36;22.80;99.90
11559;DHT22;5835;42.930;25.178;2023-09-07T07:54:04;22.80;99.90
11559;DHT22;5835;42.930;25.178;2023-09-07T07:56:31;22.80;99.90
11559;DHT22;5835;42.930;25.178;2023-09-07T07:58:59;22.80;99.90
11559;DHT22;5835;42.930;25.178;2023-09-07T08:01:26;22.80;99.90
11559;DHT22;5835;42.930;25.178;2023-09-07T08:03:53;23.10;99.90
11559;DHT22;5835;42.930;25.178;2023-09-07T08:06:20;23.40;90.50
11559;DHT22;5835;42.930;25.178;2023-09-07T08:08:47;23.30;27.60
11559;DHT22;5835;42.930;25.178;2023-09-07T08:11:14;23.30;3.60
11559;DHT22;5835;42.930;25.178;2023-09-07T08:13:41;23.30;7.70
11559;DHT22;5835;42.930;25.178;2023-09-07T08:16:13;23.50;1.00
11559;DHT22;5835;42.930;25.178;2023-09-07T08:18:40;23.90;1.00
11559;DHT22;5835;42.930;25.178;2023-09-07T08:21:08;23.70;1.00
11559;DHT22;5835;42.930;25.178;2023-09-07T08:23:36;23.60;1.00
11559;DHT22;5835;42.930;25.178;2023-09-07T08:26:03;23.90;1.00
11559;DHT22;5835;42.930;25.178;2023-09-07T08:28:31;24.40;24.40
11559;DHT22;5835;42.930;25.178;2023-09-07T08:30:58;24.70;1.00
11559;DHT22;5835;42.930;25.178;2023-09-07T08:33:27;24.70;1.00
11559;DHT22;5835;42.930;25.178;2023-09-07T08:35:55;24.90;1.00
11559;DHT22;5835;42.930;25.178;2023-09-07T08:38:23;24.60;1.00
11559;DHT22;5835;42.930;25.178;2023-09-07T08:40:54;24.90;1.00
11559;DHT22;5835;42.930;25.178;2023-09-07T08:43:21;25.30;1.00
11559;DHT22;5835;42.930;25.178;2023-09-07T08:45:54;25.60;1.00
11559;DHT22;5835;42.930;25.178;2023-09-07T08:48:28;25.50;1.00
11559;DHT22;5835;42.930;25.178;2023-09-07T08:50:56;25.60;1.00
11559;DHT22;5835;42.930;25.178;2023-09-07T08:53:24;25.50;1.00
11559;DHT22;5835;42.930;25.178;2023-09-07T08:55:52;25.60;1.00
11559;DHT22;5835;42.930;25.178;2023-09-07T08:58:19;26.10;1.00
11559;DHT22;5835;42.930;25.178;2023-09-07T09:00:46;26.30;1.00
11559;DHT22;5835;42.930;25.178;2023-09-07T09:03:15;26.30;1.00
11559;DHT22;5835;42.930;25.178;2023-09-07T09:05:43;26.40;1.00
11559;DHT22;5835;42.930;25.178;2023-09-07T09:08:11;26.70;1.00
11559;DHT22;5835;42.930;25.178;2023-09-07T09:10:39;26.90;1.00
11559;DHT22;5835;42.930;25.178;2023-09-07T09:13:06;26.90;1.00
11559;DHT22;5835;42.930;25.178;2023-09-07T09:15:33;27.30;1.00
11559;DHT22;5835;42.930;25.178;2023-09-07T09:18:09;26.40;1.00
11559;DHT22;5835;42.930;25.178;2023-09-07T09:20:38;26.60;1.00
11559;DHT22;5835;42.930;25.178;2023-09-07T09:23:06;26.40;1.00
11559;DHT22;5835;42.930;25.178;2023-09-07T09:25:33;26.00;1.00
11559;DHT22;5835;42.930;25.178;2023-09-07T09:28:00;25.60;1.00
11559;DHT22;5835;42.930;25.178;2023-09-07T09:30:29;25.50;1.00
11559;DHT22;5835;42.930;25.178;2023-09-07T09:32:57;25.40;1.00
11559;DHT22;5835;42.930;25.178;2023-09-07T09:35:26;25.60;1.00
11559;DHT22;5835;42.930;25.178;2023-09-07T09:37:53;25.50;1.00
11559;DHT22;5835;42.930;25.178;2023-09-07T09:40:22;25.10;1.00
11559;DHT22;5835;42.930;25.178;2023-09-07T09:42:52;25.10;1.00
11559;DHT22;5835;42.930;25.178;2023-09-07T09:45:21;25.00;1.00
11559;DHT22;5835;42.930;25.178;2023-09-07T09:47:50;25.60;1.00
11559;DHT22;5835;42.930;25.178;2023-09-07T09:50:19;26.00;1.00
11559;DHT22;5835;42.930;25.178;2023-09-07T09:52:46;25.70;1.00
11559;DHT22;5835;42.930;25.178;2023-09-07T09:55:13;25.80;1.00
11559;DHT22;5835;42.930;25.178;2023-09-07T09:57:43;25.90;1.00
11559;DHT22;5835;42.930;25.178;2023-09-07T10:00:11;26.00;1.00
11559;DHT22;5835;42.930;25.178;2023-09-07T10:03:00;26.10;1.00
11559;DHT22;5835;42.930;25.178;2023-09-07T10:05:30;25.90;1.00
11559;DHT22;5835;42.930;25.178;2023-09-07T10:08:01;25.90;1.00
11559;DHT22;5835;42.930;25.178;2023-09-07T10:10:35;25.90;1.00
11559;DHT22;5835;42.930;25.178;2023-09-07T10:13:05;26.30;1.00
11559;DHT22;5835;42.930;25.178;2023-09-07T10:15:32;26.70;1.00
11559;DHT22;5835;42.930;25.178;2023-09-07T10:18:10;26.60;1.00
11559;DHT22;5835;42.930;25.178;2023-09-07T10:20:51;26.70;1.00
11559;DHT22;5835;42.930;25.178;2023-09-07T10:23:18;26.70;1.00
11559;DHT22;5835;42.930;25.178;2023-09-07T10:25:50;26.50;1.00
11559;DHT22;5835;42.930;25.178;2023-09-07T10:28:22;26.50;1.00
11559;DHT22;5835;42.930;25.178;2023-09-07T10:31:03;26.60;1.00
11559;DHT22;5835;42.930;25.178;2023-09-07T10:33:31;27.00;1.00
11559;DHT22;5835;42.930;25.178;2023-09-07T10:35:58;26.90;1.00
11559;DHT22;5835;42.930;25.178;2023-09-07T10:38:25;27.20;1.00
11559;DHT22;5835;42.930;25.178;2023-09-07T10:40:56;27.60;1.00
11559;DHT22;5835;42.930;25.178;2023-09-07T10:43:26;28.20;1.00
11559;DHT22;5835;42.930;25.178;2023-09-07T10:45:54;27.90;1.00
11559;DHT22;5835;42.930;25.178;2023-09-07T10:48:22;27.70;1.00
11559;DHT22;5835;42.930;25.178;2023-09-07T10:50:49;27.90;1.00
11559;DHT22;5835;42.930;25.178;2023-09-07T10:53:25;27.60;1.00
11559;DHT22;5835;42.930;25.178;2023-09-07T10:55:53;28.50;1.00
11559;DHT22;5835;42.930;25.178;2023-09-07T10:58:29;28.80;1.00
11559;DHT22;5835;42.930;25.178;2023-09-07T11:00:56;28.60;1.00
11559;DHT22;5835;42.930;25.178;2023-09-07T11:03:26;28.40;1.00
11559;DHT22;5835;42.930;25.178;2023-09-07T11:05:55;27.50;1.00
11559;DHT22;5835;42.930;25.178;2023-09-07T11:08:23;27.20;1.00
11559;DHT22;5835;42.930;25.178;2023-09-07T11:10:53;27.30;1.00
11559;DHT22;5835;42.930;25.178;2023-09-07T11:13:21;27.40;1.00
11559;DHT22;5835;42.930;25.178;2023-09-07T11:15:49;27.50;1.00
11559;DHT22;5835;42.930;25.178;2023-09-07T11:18:20;27.70;1.00
11559;DHT22;5835;42.930;25.178;2023-09-07T11:20:48;28.10;1.00
11559;DHT22;5835;42.930;25.178;2023-09-07T11:23:16;29.10;1.00
11559;DHT22;5835;42.930;25.178;2023-09-07T11:25:43;29.70;1.00
11559;DHT22;5835;42.930;25.178;2023-09-07T11:28:10;29.60;1.00
11559;DHT22;5835;42.930;25.178;2023-09-07T11:30:49;28.90;1.00
11559;DHT22;5835;42.930;25.178;2023-09-07T11:33:17;29.10;1.00
11559;DHT22;5835;42.930;25.178;2023-09-07T11:35:44;29.50;1.00
11559;DHT22;5835;42.930;25.178;2023-09-07T11:38:13;28.70;1.00
11559;DHT22;5835;42.930;25.178;2023-09-07T11:40:41;28.70;1.00
11559;DHT22;5835;42.930;25.178;2023-09-07T11:43:10;28.60;1.00
11559;DHT22;5835;42.930;25.178;2023-09-07T11:45:38;28.30;1.00
11559;DHT22;5835;42.930;25.178;2023-09-07T11:48:07;28.70;1.00
11559;DHT22;5835;42.930;25.178;2023-09-07T11:50:35;29.00;1.00
11559;DHT22;5835;42.930;25.178;2023-09-07T11:53:03;28.50;99.90
11559;DHT22;5835;42.930;25.178;2023-09-07T11:55:30;28.70;99.90
11559;DHT22;5835;42.930;25.178;2023-09-07T11:57:57;29.00;99.90
11559;DHT22;5835;42.930;25.178;2023-09-07T12:00:24;30.20;1.00
11559;DHT22;5835;42.930;25.178;2023-09-07T12:02:51;30.30;1.00
11559;DHT22;5835;42.930;25.178;2023-09-07T12:05:19;30.40;99.90
11559;DHT22;5835;42.930;25.178;2023-09-07T12:07:46;30.50;99.90
11559;DHT22;5835;42.930;25.178;2023-09-07T12:10:14;30.70;99.90
11559;DHT22;5835;42.930;25.178;2023-09-07T12:12:41;30.80;99.90
11559;DHT22;5835;42.930;25.178;2023-09-07T12:15:11;30.20;99.90
11559;DHT22;5835;42.930;25.178;2023-09-07T12:17:38;30.40;99.90
11559;DHT22;5835;42.930;25.178;2023-09-07T12:20:06;30.60;99.90
11559;DHT22;5835;42.930;25.178;2023-09-07T12:22:37;31.10;99.90
11559;DHT22;5835;42.930;25.178;2023-09-07T12:25:05;31.90;99.90
11559;DHT22;5835;42.930;25.178;2023-09-07T12:27:33;31.80;99.90
11559;DHT22;5835;42.930;25.178;2023-09-07T12:30:00;32.00;99.90
11559;DHT22;5835;42.930;25.178;2023-09-07T12:32:31;31.90;99.90
11559;DHT22;5835;42.930;25.178;2023-09-07T12:34:59;31.30;99.90
11559;DHT22;5835;42.930;25.178;2023-09-07T12:37:26;31.30;99.90
11559;DHT22;5835;42.930;25.178;2023-09-07T12:39:54;30.40;99.90
11559;DHT22;5835;42.930;25.178;2023-09-07T12:42:22;30.30;99.90
11559;DHT22;5835;42.930;25.178;2023-09-07T12:44:50;30.40;99.90
11559;DHT22;5835;42.930;25.178;2023-09-07T12:47:17;30.00;99.90
11559;DHT22;5835;42.930;25.178;2023-09-07T12:49:45;29.90;99.90
11559;DHT22;5835;42.930;25.178;2023-09-07T12:52:12;30.00;99.90
11559;DHT22;5835;42.930;25.178;2023-09-07T12:54:41;29.90;99.90
11559;DHT22;5835;42.930;25.178;2023-09-07T12:57:09;29.90;99.90
11559;DHT22;5835;42.930;25.178;2023-09-07T12:59:37;29.30;99.90
11559;DHT22;5835;42.930;25.178;2023-09-07T13:02:04;29.40;99.90
11559;DHT22;5835;42.930;25.178;2023-09-07T13:04:31;29.70;99.90
11559;DHT22;5835;42.930;25.178;2023-09-07T13:06:58;29.40;99.90
11559;DHT22;5835;42.930;25.178;2023-09-07T13:09:27;29.20;99.90
11559;DHT22;5835;42.930;25.178;2023-09-07T13:11:54;28.90;99.90
11559;DHT22;5835;42.930;25.178;2023-09-07T13:14:22;29.50;99.90
11559;DHT22;5835;42.930;25.178;2023-09-07T13:16:49;30.10;99.90
11559;DHT22;5835;42.930;25.178;2023-09-07T13:19:17;30.80;99.90
11559;DHT22;5835;42.930;25.178;2023-09-07T13:21:44;31.50;99.90
11559;DHT22;5835;42.930;25.178;2023-09-07T13:24:11;30.90;99.90
11559;DHT22;5835;42.930;25.178;2023-09-07T13:26:39;30.40;99.90
11559;DHT22;5835;42.930;25.178;2023-09-07T13:29:06;30.30;99.90
11559;DHT22;5835;42.930;25.178;2023-09-07T13:31:34;30.60;99.90
11559;DHT22;5835;42.930;25.178;2023-09-07T13:34:01;30.30;99.90
11559;DHT22;5835;42.930;25.178;2023-09-07T13:36:28;30.10;99.90
11559;DHT22;5835;42.930;25.178;2023-09-07T13:38:55;29.90;99.90
11559;DHT22;5835;42.930;25.178;2023-09-07T13:41:23;30.60;99.90
11559;DHT22;5835;42.930;25.178;2023-09-07T13:43:50;31.50;99.90
11559;DHT22;5835;42.930;25.178;2023-09-07T13:46:17;31.50;99.90
11559;DHT22;5835;42.930;25.178;2023-09-07T13:48:45;31.40;99.90
11559;DHT22;5835;42.930;25.178;2023-09-07T13:51:13;31.20;99.90
11559;DHT22;5835;42.930;25.178;2023-09-07T13:53:40;30.60;99.90
11559;DHT22;5835;42.930;25.178;2023-09-07T13:56:07;30.30;99.90
11559;DHT22;5835;42.930;25.178;2023-09-07T13:58:34;30.70;99.90
11559;DHT22;5835;42.930;25.178;2023-09-07T14:01:01;31.00;99.90
11559;DHT22;5835;42.930;25.178;2023-09-07T14:03:28;30.90;99.90
11559;DHT22;5835;42.930;25.178;2023-09-07T14:05:56;30.60;99.90
11559;DHT22;5835;42.930;25.178;2023-09-07T14:08:23;30.40;99.90
11559;DHT22;5835;42.930;25.178;2023-09-07T14:10:50;30.50;99.90
11559;DHT22;5835;42.930;25.178;2023-09-07T14:13:18;30.20;99.90
11559;DHT22;5835;42.930;25.178;2023-09-07T14:15:45;29.80;99.90
11559;DHT22;5835;42.930;25.178;2023-09-07T14:18:12;29.20;99.90
11559;DHT22;5835;42.930;25.178;2023-09-07T14:20:42;29.10;99.90
11559;DHT22;5835;42.930;25.178;2023-09-07T14:23:26;29.10;99.90
11559;DHT22;5835;42.930;25.178;2023-09-07T14:25:54;28.60;99.90
11559;DHT22;5835;42.930;25.178;2023-09-07T14:28:21;28.60;99.90
11559;DHT22;5835;42.930;25.178;2023-09-07T14:30:48;28.60;99.90
11559;DHT22;5835;42.930;25.178;2023-09-07T14:33:16;28.70;99.90
11559;DHT22;5835;42.930;25.178;2023-09-07T14:35:43;28.70;99.90
11559;DHT22;5835;42.930;25.178;2023-09-07T14:38:13;28.60;99.90
11559;DHT22;5835;42.930;25.178;2023-09-07T14:40:42;28.70;99.90
11559;DHT22;5835;42.930;25.178;2023-09-07T14:43:23;28.90;99.90
11559;DHT22;5835;42.930;25.178;2023-09-07T14:45:52;29.30;99.90
11559;DHT22;5835;42.930;25.178;2023-09-07T14:48:20;29.70;99.90
11559;DHT22;5835;42.930;25.178;2023-09-07T14:50:47;29.80;99.90
11559;DHT22;5835;42.930;25.178;2023-09-07T14:53:14;29.80;99.90
11559;DHT22;5835;42.930;25.178;2023-09-07T14:55:43;29.90;99.90
11559;DHT22;5835;42.930;25.178;2023-09-07T14:58:10;29.90;99.90
11559;DHT22;5835;42.930;25.178;2023-09-07T15:00:37;30.00;99.90
11559;DHT22;5835;42.930;25.178;2023-09-07T15:03:04;30.20;99.90
11559;DHT22;5835;42.930;25.178;2023-09-07T15:05:32;30.10;99.90
11559;DHT22;5835;42.930;25.178;2023-09-07T15:07:59;30.20;99.90
11559;DHT22;5835;42.930;25.178;2023-09-07T15:10:28;30.20;99.90
11559;DHT22;5835;42.930;25.178;2023-09-07T15:12:56;30.30;99.90
11559;DHT22;5835;42.930;25.178;2023-09-07T15:15:24;30.30;99.90
11559;DHT22;5835;42.930;25.178;2023-09-07T15:17:52;29.90;99.90
11559;DHT22;5835;42.930;25.178;2023-09-07T15:20:19;29.40;99.90
11559;DHT22;5835;42.930;25.178;2023-09-07T15:22:46;29.10;99.90
11559;DHT22;5835;42.930;25.178;2023-09-07T15:25:13;29.10;99.90
11559;DHT22;5835;42.930;25.178;2023-09-07T15:27:43;29.00;99.90
11559;DHT22;5835;42.930;25.178;2023-09-07T15:30:12;28.90;99.90
11559;DHT22;5835;42.930;25.178;2023-09-07T15:32:40;29.00;99.90
11559;DHT22;5835;42.930;25.178;2023-09-07T15:35:07;28.80;99.90
11559;DHT22;5835;42.930;25.178;2023-09-07T15:37:34;28.50;99.90
11559;DHT22;5835;42.930;25.178;2023-09-07T15:40:01;28.60;99.90
11559;DHT22;5835;42.930;25.178;2023-09-07T15:42:29;28.50;99.90